Time;durP1;ratioP1;P1;durP2;ratioP2;P2;SDS_P1;SDS_P2;PMS_P1;PMS_P2;Temp;Humidity;BMP_temperature;BMP_pressure;BME280_temperature;BME280_humidity;BME280_pressure;Samples;Min_cycle;Max_cycle;Signal;HPM_P1;HPM_P2
2022/11/06 00:00:18;;;;;;;0.10;0.10;;;10.70;99.90;;;;;;5051034;28;20064;-64
2022/11/06 00:02:45;;;;;;;0.28;0.28;;;10.70;99.90;;;;;;5058520;28;20083;-64
2022/11/06 00:07:55;;;;;;;0.10;0.10;;;10.70;99.90;;;;;;5049524;28;20052;-64
2022/11/06 00:10:21;;;;;;;0.25;0.25;;;10.60;99.90;;;;;;5063257;28;20468;-64
2022/11/06 00:12:46;;;;;;;0.20;0.20;;;10.60;99.90;;;;;;5051190;28;20037;-64
2022/11/06 00:15:12;;;;;;;1.55;1.45;;;10.60;99.90;;;;;;5063471;28;20041;-64
2022/11/06 00:17:38;;;;;;;1.42;1.33;;;10.60;99.90;;;;;;5053397;28;20488;-64
2022/11/06 00:20:05;;;;;;;0.10;0.10;;;10.60;99.90;;;;;;5065903;28;20037;-64
2022/11/06 00:22:32;;;;;;;0.10;0.10;;;10.60;99.90;;;;;;5058342;28;20385;-64
2022/11/06 00:24:59;;;;;;;0.50;0.50;;;10.60;99.90;;;;;;5063414;28;20049;-64
2022/11/06 00:27:24;;;;;;;0.40;0.40;;;10.70;99.90;;;;;;5056468;28;20990;-64
2022/11/06 00:29:50;;;;;;;0.30;0.30;;;10.60;99.90;;;;;;5046343;28;20049;-64
2022/11/06 00:32:15;;;;;;;0.77;0.77;;;10.70;99.90;;;;;;5059453;28;20053;-64
2022/11/06 00:34:41;;;;;;;0.70;0.65;;;10.70;99.90;;;;;;5058382;28;20036;-64
2022/11/06 00:37:06;;;;;;;0.10;0.10;;;10.70;99.90;;;;;;5050787;28;20052;-63
2022/11/06 00:39:32;;;;;;;0.30;0.30;;;10.70;99.90;;;;;;5051574;28;20090;-63
2022/11/06 00:41:57;;;;;;;0.10;0.10;;;10.70;99.90;;;;;;5059038;28;20071;-64
2022/11/06 00:44:23;;;;;;;0.20;0.20;;;10.70;99.90;;;;;;5067650;28;20395;-64
2022/11/06 00:46:48;;;;;;;1.90;1.80;;;10.70;99.90;;;;;;5053054;28;20083;-63
2022/11/06 00:49:14;;;;;;;0.22;0.22;;;10.70;99.90;;;;;;5055940;28;20040;-63
2022/11/06 00:51:40;;;;;;;0.20;0.20;;;10.80;99.90;;;;;;5068806;28;20028;-63
2022/11/06 00:54:09;;;;;;;0.22;0.22;;;10.70;99.90;;;;;;5055349;28;20071;-63
2022/11/06 00:56:34;;;;;;;0.10;0.10;;;10.80;99.90;;;;;;5064930;28;20659;-63
2022/11/06 00:59:06;;;;;;;6.18;1.08;;;10.80;99.90;;;;;;5064908;28;20124;-63
2022/11/06 01:01:37;;;;;;;0.10;0.10;;;10.80;99.90;;;;;;5057074;28;20040;-63
2022/11/06 01:04:04;;;;;;;1.83;1.73;;;10.80;99.90;;;;;;5052787;28;20082;-64
2022/11/06 01:06:34;;;;;;;0.55;0.52;;;10.80;99.90;;;;;;5055123;28;20403;-63
2022/11/06 01:09:00;;;;;;;0.25;0.25;;;10.80;99.90;;;;;;5069540;28;20044;-64
2022/11/06 01:11:32;;;;;;;0.10;0.10;;;10.80;99.90;;;;;;5054427;28;20054;-63
2022/11/06 01:14:00;;;;;;;0.10;0.10;;;10.80;99.90;;;;;;5051555;28;20045;-63
2022/11/06 01:16:27;;;;;;;0.38;0.38;;;10.80;99.90;;;;;;5061855;28;20047;-64
2022/11/06 01:18:54;;;;;;;0.22;0.22;;;10.80;99.90;;;;;;5069335;28;20047;-63
2022/11/06 01:21:25;;;;;;;0.45;0.45;;;10.80;99.90;;;;;;5051092;28;20068;-64
2022/11/06 01:23:53;;;;;;;0.20;0.20;;;10.80;99.90;;;;;;5069348;28;20048;-63
2022/11/06 01:26:19;;;;;;;1.23;0.85;;;10.80;99.90;;;;;;5037230;28;20477;-64
2022/11/06 01:28:46;;;;;;;0.15;0.15;;;10.80;99.90;;;;;;5061640;28;20063;-64
2022/11/06 01:31:15;;;;;;;0.15;0.15;;;10.80;99.90;;;;;;5051183;28;20040;-64
2022/11/06 01:33:41;;;;;;;0.73;0.73;;;10.80;99.90;;;;;;5051290;28;20048;-64
2022/11/06 01:36:11;;;;;;;0.10;0.10;;;10.90;99.90;;;;;;5068745;28;20055;-64
2022/11/06 01:38:45;;;;;;;0.57;0.47;;;10.90;99.90;;;;;;5069167;28;20454;-64
2022/11/06 01:41:14;;;;;;;0.60;0.60;;;10.90;99.90;;;;;;5051637;28;20578;-64
2022/11/06 01:43:49;;;;;;;1.00;0.93;;;10.90;99.90;;;;;;5059976;28;20502;-63
2022/11/06 01:46:16;;;;;;;0.10;0.10;;;10.90;99.90;;;;;;5072180;28;20044;-63
2022/11/06 01:48:52;;;;;;;0.82;0.82;;;10.90;99.90;;;;;;5052664;28;20052;-64
2022/11/06 01:51:18;;;;;;;0.00;0.00;;;10.90;99.90;;;;;;5056644;28;20045;-63
2022/11/06 01:53:44;;;;;;;0.68;0.68;;;10.80;99.90;;;;;;5067363;28;20074;-63
2022/11/06 01:56:12;;;;;;;0.43;0.43;;;10.80;99.90;;;;;;5062038;28;20037;-63
2022/11/06 01:58:41;;;;;;;0.85;0.85;;;10.80;99.90;;;;;;5057068;28;20436;-63
2022/11/06 02:01:07;;;;;;;0.13;0.13;;;10.90;99.90;;;;;;5070552;28;20056;-64
2022/11/06 02:03:34;;;;;;;0.43;0.43;;;10.80;99.90;;;;;;5065856;28;20045;-64
2022/11/06 02:06:01;;;;;;;0.10;0.10;;;10.80;99.90;;;;;;5053173;28;20389;-64
2022/11/06 02:08:27;;;;;;;0.13;0.13;;;10.80;99.90;;;;;;5063849;28;20166;-63
2022/11/06 02:10:53;;;;;;;0.90;0.68;;;10.80;99.90;;;;;;5057188;28;20547;-64
2022/11/06 02:13:39;;;;;;;0.10;0.10;;;10.80;99.90;;;;;;5052477;28;20175;-64
2022/11/06 02:16:37;;;;;;;0.10;0.10;;;10.80;99.90;;;;;;5052208;28;20079;-64
2022/11/06 02:19:24;;;;;;;0.10;0.10;;;10.80;99.90;;;;;;5056700;28;20032;-63
2022/11/06 02:22:03;;;;;;;0.30;0.30;;;10.80;99.90;;;;;;5072260;28;20075;-64
2022/11/06 02:24:49;;;;;;;0.10;0.10;;;10.80;99.90;;;;;;5049549;28;20041;-63
2022/11/06 02:27:17;;;;;;;0.20;0.20;;;10.80;99.90;;;;;;5052437;28;20056;-64
2022/11/06 02:29:51;;;;;;;0.50;0.50;;;10.80;99.90;;;;;;5060703;28;20430;-64
2022/11/06 02:32:33;;;;;;;1.05;0.52;;;10.90;99.90;;;;;;5059404;28;20369;-64
2022/11/06 02:35:04;;;;;;;0.13;0.13;;;10.80;99.90;;;;;;5066001;28;20131;-64
2022/11/06 02:37:35;;;;;;;0.10;0.10;;;10.90;99.90;;;;;;5070200;28;20121;-64
2022/11/06 02:40:06;;;;;;;0.10;0.10;;;10.90;99.90;;;;;;5068523;28;20455;-64
2022/11/06 02:42:37;;;;;;;0.30;0.30;;;10.90;99.90;;;;;;5052131;28;20045;-64
2022/11/06 02:45:06;;;;;;;0.57;0.57;;;10.90;99.90;;;;;;5052463;28;20045;-64
2022/11/06 02:47:33;;;;;;;0.10;0.10;;;10.90;99.90;;;;;;5051327;28;20045;-64
2022/11/06 02:50:13;;;;;;;0.30;0.30;;;10.90;99.90;;;;;;5068152;28;20048;-63
2022/11/06 02:52:56;;;;;;;0.15;0.15;;;10.90;99.90;;;;;;5056073;28;20510;-63
2022/11/06 02:55:29;;;;;;;0.50;0.50;;;10.90;99.90;;;;;;5034679;28;20059;-64
2022/11/06 02:57:59;;;;;;;2.33;0.73;;;11.00;99.90;;;;;;5034657;28;20443;-63
2022/11/06 03:00:26;;;;;;;0.10;0.10;;;10.90;99.90;;;;;;5060560;28;20059;-63
2022/11/06 03:03:07;;;;;;;0.22;0.22;;;10.90;99.90;;;;;;5051267;28;20060;-64
2022/11/06 03:05:51;;;;;;;1.75;0.90;;;11.00;99.90;;;;;;5051063;28;20048;-64
2022/11/06 03:08:24;;;;;;;0.40;0.40;;;11.00;99.90;;;;;;5067161;28;20134;-64
2022/11/06 03:10:58;;;;;;;0.43;0.43;;;11.00;99.90;;;;;;5037611;28;20045;-63
2022/11/06 03:13:48;;;;;;;0.25;0.25;;;10.90;99.90;;;;;;5052268;28;20451;-64
2022/11/06 03:16:27;;;;;;;1.38;0.88;;;11.00;99.90;;;;;;5051875;28;20445;-63
2022/11/06 03:19:05;;;;;;;0.10;0.10;;;10.90;99.90;;;;;;5059071;28;20046;-63
2022/11/06 03:21:42;;;;;;;0.35;0.35;;;10.90;99.90;;;;;;5036411;28;20124;-64
2022/11/06 03:24:17;;;;;;;0.28;0.28;;;10.90;99.90;;;;;;5065551;28;20111;-64
2022/11/06 03:26:48;;;;;;;1.27;1.20;;;11.00;99.90;;;;;;5067810;28;20052;-63
2022/11/06 03:29:35;;;;;;;0.13;0.13;;;11.00;99.90;;;;;;5058683;28;20135;-64
2022/11/06 03:32:26;;;;;;;0.10;0.10;;;11.00;99.90;;;;;;5066620;28;20975;-64
2022/11/06 03:34:58;;;;;;;3.72;1.75;;;11.00;99.90;;;;;;5066310;28;20044;-64
2022/11/06 03:37:31;;;;;;;0.10;0.10;;;11.00;99.90;;;;;;5053216;28;20418;-64
2022/11/06 03:40:01;;;;;;;0.80;0.80;;;11.00;99.90;;;;;;5053355;28;20043;-63
2022/11/06 03:42:29;;;;;;;0.10;0.10;;;11.00;99.90;;;;;;5055049;28;20044;-63
2022/11/06 03:45:06;;;;;;;0.43;0.43;;;11.00;99.90;;;;;;5053348;28;20048;-63
2022/11/06 03:47:40;;;;;;;0.10;0.10;;;11.00;99.90;;;;;;5052001;28;20048;-63
2022/11/06 03:50:23;;;;;;;0.75;0.75;;;11.00;99.90;;;;;;5053775;28;20079;-63
2022/11/06 03:52:54;;;;;;;0.30;0.30;;;11.00;99.90;;;;;;5062141;28;20045;-64
2022/11/06 03:55:26;;;;;;;1.83;1.73;;;11.00;99.90;;;;;;5064205;28;20053;-64
2022/11/06 03:58:02;;;;;;;1.15;1.15;;;11.00;99.90;;;;;;5055905;28;20139;-64
2022/11/06 04:00:29;;;;;;;0.30;0.30;;;11.00;99.90;;;;;;5064792;28;20040;-64
2022/11/06 04:03:05;;;;;;;1.00;1.00;;;11.00;99.90;;;;;;5069895;28;20051;-63
2022/11/06 04:05:44;;;;;;;0.10;0.10;;;11.00;99.90;;;;;;5056884;28;20369;-64
2022/11/06 04:13:59;;;;;;;0.52;0.52;;;11.00;99.90;;;;;;5033683;28;20048;-64
2022/11/06 04:16:37;;;;;;;0.00;0.00;;;10.90;99.90;;;;;;5069631;28;20047;-64
2022/11/06 04:19:16;;;;;;;0.10;0.10;;;11.00;99.90;;;;;;5065185;28;20052;-64
2022/11/06 04:22:23;;;;;;;0.50;0.50;;;11.00;99.90;;;;;;5063662;28;20052;-64
2022/11/06 04:28:31;;;;;;;0.10;0.10;;;10.90;99.90;;;;;;5047263;28;20057;-64
2022/11/06 04:31:17;;;;;;;0.17;0.17;;;10.90;99.90;;;;;;5052622;28;20053;-64
2022/11/06 04:33:45;;;;;;;0.68;0.68;;;10.90;99.90;;;;;;5064980;28;20488;-64
2022/11/06 04:36:32;;;;;;;0.13;0.13;;;10.90;99.90;;;;;;5053623;28;20124;-63
2022/11/06 04:39:12;;;;;;;0.28;0.28;;;10.90;99.90;;;;;;5056289;28;20045;-63
2022/11/06 04:41:48;;;;;;;0.10;0.10;;;10.90;99.90;;;;;;5058257;28;20048;-64
2022/11/06 04:44:25;;;;;;;0.73;0.47;;;10.90;99.90;;;;;;5055552;28;20411;-63
2022/11/06 04:46:59;;;;;;;0.63;0.63;;;10.90;99.90;;;;;;5062868;28;20045;-64
2022/11/06 04:49:28;;;;;;;1.80;1.70;;;10.90;99.90;;;;;;5058152;28;20155;-64
2022/11/06 04:51:54;;;;;;;0.20;0.20;;;10.90;99.90;;;;;;5062712;28;20040;-63
2022/11/06 04:54:21;;;;;;;0.17;0.17;;;10.90;99.90;;;;;;5057283;28;20121;-64
2022/11/06 04:56:47;;;;;;;0.20;0.20;;;10.90;99.90;;;;;;5065098;28;20033;-63
2022/11/06 04:59:16;;;;;;;1.48;1.23;;;10.90;99.90;;;;;;5055586;28;20033;-63
2022/11/06 05:01:43;;;;;;;0.13;0.13;;;10.90;99.90;;;;;;5061267;28;20041;-64
2022/11/06 05:04:10;;;;;;;0.70;0.70;;;10.90;99.90;;;;;;5054706;28;20064;-63
2022/11/06 05:06:36;;;;;;;0.32;0.32;;;10.90;99.90;;;;;;5030275;28;20049;-63
2022/11/06 05:09:01;;;;;;;0.68;0.68;;;10.90;99.90;;;;;;5056886;28;20446;-64
2022/11/06 05:11:27;;;;;;;0.10;0.10;;;10.90;99.90;;;;;;5068845;28;20055;-64
2022/11/06 05:13:53;;;;;;;1.20;1.20;;;10.90;99.90;;;;;;5067584;28;20053;-64
2022/11/06 05:16:19;;;;;;;0.70;0.70;;;11.00;99.90;;;;;;5054208;28;20052;-64
2022/11/06 05:18:44;;;;;;;0.10;0.10;;;10.90;99.90;;;;;;5052114;28;20045;-64
2022/11/06 05:23:54;;;;;;;0.20;0.20;;;10.90;99.90;;;;;;5069241;28;20044;-64
2022/11/06 05:26:19;;;;;;;0.43;0.43;;;10.90;99.90;;;;;;5072449;28;20404;-64
2022/11/06 05:28:45;;;;;;;0.35;0.35;;;10.90;99.90;;;;;;5057386;28;20455;-64
2022/11/06 05:31:10;;;;;;;0.10;0.10;;;10.90;99.90;;;;;;5061062;28;20479;-63
2022/11/06 05:33:36;;;;;;;0.30;0.30;;;10.90;99.90;;;;;;5039556;28;20429;-63
2022/11/06 05:36:05;;;;;;;1.13;1.08;;;10.90;99.90;;;;;;5055467;28;20120;-63
2022/11/06 05:38:31;;;;;;;0.10;0.10;;;10.90;99.90;;;;;;5054833;28;20044;-64
2022/11/06 05:40:57;;;;;;;0.10;0.10;;;10.90;99.90;;;;;;5072112;28;20123;-64
2022/11/06 05:43:23;;;;;;;0.30;0.30;;;10.90;99.90;;;;;;5069869;28;20048;-63
2022/11/06 05:45:48;;;;;;;0.45;0.45;;;10.90;99.90;;;;;;5057902;28;20037;-63
2022/11/06 05:48:14;;;;;;;0.20;0.20;;;10.90;99.90;;;;;;5057288;28;20515;-63
2022/11/06 05:50:39;;;;;;;0.10;0.10;;;10.90;99.90;;;;;;5053682;28;20106;-63
2022/11/06 05:53:05;;;;;;;0.10;0.10;;;10.90;99.90;;;;;;5058000;28;20033;-63
2022/11/06 05:55:30;;;;;;;0.10;0.10;;;10.90;99.90;;;;;;5070260;28;20044;-63
2022/11/06 05:57:56;;;;;;;0.13;0.13;;;10.90;99.90;;;;;;5058751;28;20388;-63
2022/11/06 06:00:22;;;;;;;0.10;0.10;;;10.90;99.90;;;;;;5058513;28;20049;-63
2022/11/06 06:02:47;;;;;;;0.47;0.47;;;10.80;99.90;;;;;;5069189;28;20049;-63
2022/11/06 06:05:13;;;;;;;0.13;0.13;;;10.80;99.90;;;;;;5065135;28;20040;-63
2022/11/06 06:07:39;;;;;;;0.40;0.40;;;10.80;99.90;;;;;;5060397;28;20037;-63
2022/11/06 06:10:06;;;;;;;0.68;0.68;;;10.80;99.90;;;;;;5067039;28;20479;-64
2022/11/06 06:12:32;;;;;;;1.00;1.00;;;10.80;99.90;;;;;;5071436;28;20097;-63
2022/11/06 06:14:57;;;;;;;0.82;0.82;;;10.80;99.90;;;;;;5066802;28;20115;-64
2022/11/06 06:17:23;;;;;;;1.40;1.30;;;10.80;99.90;;;;;;5051959;28;20481;-64
2022/11/06 06:19:48;;;;;;;0.85;0.85;;;10.80;99.90;;;;;;5048172;28;20059;-64
2022/11/06 06:22:14;;;;;;;1.35;0.77;;;10.80;99.90;;;;;;5069000;28;20045;-64
2022/11/06 06:24:40;;;;;;;0.10;0.10;;;10.80;99.90;;;;;;5071821;28;20063;-63
2022/11/06 06:27:06;;;;;;;0.45;0.45;;;10.70;99.90;;;;;;5070520;28;20114;-63
2022/11/06 06:29:31;;;;;;;0.47;0.47;;;10.70;99.90;;;;;;5058001;28;20056;-64
2022/11/06 06:31:57;;;;;;;0.15;0.15;;;10.70;99.90;;;;;;5051925;28;20053;-63
2022/11/06 06:34:23;;;;;;;0.55;0.55;;;10.70;99.90;;;;;;5042099;28;20055;-64
2022/11/06 06:36:52;;;;;;;0.60;0.60;;;10.60;99.90;;;;;;5071808;28;20048;-64
2022/11/06 06:39:18;;;;;;;0.10;0.10;;;10.60;99.90;;;;;;5070132;28;20048;-64
2022/11/06 06:41:45;;;;;;;0.35;0.35;;;10.60;99.90;;;;;;5050006;28;20055;-64
2022/11/06 06:44:11;;;;;;;0.50;0.50;;;10.60;99.90;;;;;;5066065;28;20436;-63
2022/11/06 06:46:37;;;;;;;0.28;0.28;;;10.60;99.90;;;;;;5055268;28;20447;-64
2022/11/06 06:49:03;;;;;;;0.40;0.40;;;10.60;99.90;;;;;;5054365;28;20049;-63
2022/11/06 06:51:28;;;;;;;0.25;0.25;;;10.60;99.90;;;;;;5064575;28;20044;-63
2022/11/06 06:53:54;;;;;;;0.98;0.75;;;10.60;99.90;;;;;;5043326;28;20059;-64
2022/11/06 06:56:19;;;;;;;0.20;0.20;;;10.60;99.90;;;;;;5059677;28;20048;-63
2022/11/06 06:58:45;;;;;;;0.20;0.20;;;10.60;99.90;;;;;;5050063;28;20040;-63
2022/11/06 07:01:10;;;;;;;0.65;0.65;;;10.60;99.90;;;;;;5036471;28;20094;-64
2022/11/06 07:03:37;;;;;;;0.20;0.20;;;10.60;99.90;;;;;;5039046;28;20133;-64
2022/11/06 07:06:03;;;;;;;0.75;0.50;;;10.60;99.90;;;;;;5069946;28;20434;-64
2022/11/06 07:08:29;;;;;;;0.30;0.30;;;10.60;99.90;;;;;;5054640;28;20116;-64
2022/11/06 07:11:03;;;;;;;0.13;0.13;;;10.60;99.90;;;;;;5047459;28;20086;-64
2022/11/06 07:13:29;;;;;;;0.00;0.00;;;10.60;99.90;;;;;;5050353;28;20041;-64
2022/11/06 07:15:54;;;;;;;0.28;0.28;;;10.60;99.90;;;;;;5051738;28;20380;-64
2022/11/06 07:18:20;;;;;;;3.47;0.75;;;10.60;99.90;;;;;;5051295;28;20091;-64
2022/11/06 07:20:45;;;;;;;0.10;0.10;;;10.60;99.90;;;;;;5059264;28;20037;-64
2022/11/06 07:23:11;;;;;;;0.30;0.30;;;10.60;99.90;;;;;;5060496;28;20033;-64
2022/11/06 07:25:37;;;;;;;0.10;0.10;;;10.50;99.90;;;;;;5068609;28;20051;-64
2022/11/06 07:28:06;;;;;;;0.65;0.47;;;10.60;99.90;;;;;;5060558;28;20400;-64
2022/11/06 07:30:34;;;;;;;0.10;0.10;;;10.60;99.90;;;;;;5058410;28;20091;-64
2022/11/06 07:33:04;;;;;;;0.17;0.17;;;10.60;99.90;;;;;;5066363;28;20037;-64
2022/11/06 07:35:31;;;;;;;0.10;0.10;;;10.60;99.90;;;;;;5054770;28;20413;-64
2022/11/06 07:38:01;;;;;;;0.52;0.52;;;10.60;99.90;;;;;;5060660;28;20057;-64
2022/11/06 07:40:26;;;;;;;0.20;0.20;;;10.60;99.90;;;;;;5055571;28;20440;-64
2022/11/06 07:42:52;;;;;;;0.85;0.85;;;10.60;99.90;;;;;;5064522;28;20445;-64
2022/11/06 07:45:17;;;;;;;0.20;0.20;;;10.60;99.90;;;;;;5052853;28;20055;-64
2022/11/06 07:47:43;;;;;;;0.10;0.10;;;10.60;99.90;;;;;;5064864;28;20029;-64
2022/11/06 07:50:09;;;;;;;0.17;0.17;;;10.60;99.90;;;;;;5051183;28;20105;-64
2022/11/06 07:52:34;;;;;;;0.30;0.30;;;10.60;99.90;;;;;;5055770;28;20055;-64
2022/11/06 07:55:00;;;;;;;0.85;0.73;;;10.60;99.90;;;;;;5051734;28;20063;-64
2022/11/06 07:57:26;;;;;;;0.22;0.22;;;10.60;99.90;;;;;;5067150;28;20111;-64
2022/11/06 07:59:51;;;;;;;0.00;0.00;;;10.50;99.90;;;;;;5050953;28;20053;-64
2022/11/06 08:02:17;;;;;;;0.10;0.10;;;10.60;99.90;;;;;;5048979;28;20048;-64
2022/11/06 08:04:43;;;;;;;0.75;0.75;;;10.60;99.90;;;;;;5050964;28;20056;-64
2022/11/06 08:07:09;;;;;;;0.10;0.10;;;10.60;99.90;;;;;;5034752;28;20476;-63
2022/11/06 08:09:34;;;;;;;0.10;0.10;;;10.60;99.90;;;;;;5049978;28;20040;-64
2022/11/06 08:12:00;;;;;;;0.10;0.10;;;10.60;99.90;;;;;;5032883;28;20408;-64
2022/11/06 08:14:26;;;;;;;0.10;0.10;;;10.60;99.90;;;;;;5065584;28;20045;-64
2022/11/06 08:16:52;;;;;;;0.10;0.10;;;10.60;99.90;;;;;;5067914;28;20036;-64
2022/11/06 08:19:17;;;;;;;0.13;0.13;;;10.60;99.90;;;;;;5049441;28;20060;-64
2022/11/06 08:21:43;;;;;;;0.08;0.08;;;10.60;99.90;;;;;;5050548;28;20075;-64
2022/11/06 08:24:08;;;;;;;0.15;0.15;;;10.60;99.90;;;;;;5050238;28;20473;-64
2022/11/06 08:26:34;;;;;;;0.98;0.98;;;10.60;99.90;;;;;;5061105;28;20087;-63
2022/11/06 08:28:59;;;;;;;0.10;0.10;;;10.60;99.90;;;;;;5069265;28;20051;-64
2022/11/06 08:31:25;;;;;;;0.50;0.50;;;10.60;99.90;;;;;;5063683;28;20484;-64
2022/11/06 08:33:52;;;;;;;0.10;0.10;;;10.70;99.90;;;;;;5044080;28;20446;-64
2022/11/06 08:36:18;;;;;;;0.77;0.77;;;10.70;99.90;;;;;;5063431;28;20108;-64
2022/11/06 08:38:46;;;;;;;0.10;0.10;;;10.70;99.90;;;;;;5062698;28;20124;-63
2022/11/06 08:41:12;;;;;;;0.10;0.10;;;10.70;99.90;;;;;;5066980;28;20193;-63
2022/11/06 08:43:38;;;;;;;0.20;0.20;;;10.70;99.90;;;;;;5055741;28;20136;-62
2022/11/06 08:46:05;;;;;;;0.88;0.82;;;10.80;99.90;;;;;;5068894;28;20052;-63
2022/11/06 08:48:32;;;;;;;0.10;0.10;;;10.80;99.90;;;;;;5065644;28;20163;-63
2022/11/06 08:50:57;;;;;;;0.10;0.10;;;10.80;99.90;;;;;;5054703;28;20138;-64
2022/11/06 08:53:23;;;;;;;0.10;0.10;;;10.80;99.90;;;;;;5066381;28;20103;-64
2022/11/06 08:55:49;;;;;;;0.10;0.10;;;10.80;99.90;;;;;;5054742;28;20045;-64
2022/11/06 08:58:15;;;;;;;0.00;0.00;;;10.80;99.90;;;;;;5063358;28;20047;-65
2022/11/06 09:00:40;;;;;;;0.52;0.52;;;10.80;99.90;;;;;;5042755;28;20123;-64
2022/11/06 09:03:13;;;;;;;0.10;0.10;;;10.80;99.90;;;;;;5057949;28;20044;-65
2022/11/06 09:05:40;;;;;;;0.20;0.20;;;10.80;99.90;;;;;;5072207;28;20059;-64
2022/11/06 09:08:06;;;;;;;0.10;0.10;;;10.80;99.90;;;;;;5058978;28;20063;-64
2022/11/06 09:10:32;;;;;;;0.10;0.10;;;10.80;99.90;;;;;;5061918;28;20041;-64
2022/11/06 09:12:58;;;;;;;0.22;0.22;;;10.80;99.90;;;;;;5069869;28;20055;-64
2022/11/06 09:15:24;;;;;;;0.20;0.20;;;10.80;99.90;;;;;;5068738;28;20045;-64
2022/11/06 09:17:50;;;;;;;0.10;0.10;;;10.80;99.90;;;;;;5071389;28;20074;-64
2022/11/06 09:20:18;;;;;;;7.07;0.90;;;10.80;99.90;;;;;;5057767;28;20049;-65
2022/11/06 09:22:44;;;;;;;0.10;0.10;;;10.70;99.90;;;;;;5048795;28;20049;-64
2022/11/06 09:25:10;;;;;;;0.40;0.40;;;10.70;99.90;;;;;;5053016;28;20499;-64
2022/11/06 09:27:45;;;;;;;0.10;0.10;;;10.70;99.90;;;;;;5041841;28;20071;-65
2022/11/06 09:30:13;;;;;;;0.20;0.20;;;10.70;99.90;;;;;;5066975;28;20049;-64
2022/11/06 09:32:45;;;;;;;0.10;0.10;;;10.70;99.90;;;;;;5063064;28;20045;-64
2022/11/06 09:35:11;;;;;;;0.10;0.10;;;10.70;99.90;;;;;;5048994;28;20102;-64
2022/11/06 09:37:36;;;;;;;0.10;0.10;;;10.70;99.90;;;;;;5062962;28;20333;-65
2022/11/06 09:40:02;;;;;;;0.10;0.10;;;10.70;99.90;;;;;;5070054;28;20071;-65
2022/11/06 09:42:46;;;;;;;1.40;0.75;;;10.70;99.90;;;;;;5068881;28;20037;-65
2022/11/06 09:45:21;;;;;;;0.30;0.30;;;10.70;99.90;;;;;;5064421;28;20037;-65
2022/11/06 09:48:13;;;;;;;0.10;0.10;;;10.70;99.90;;;;;;5073039;28;20044;-65
2022/11/06 09:51:21;;;;;;;0.10;0.10;;;10.70;99.90;;;;;;5041987;28;20411;-65
2022/11/06 09:53:55;;;;;;;0.10;0.10;;;10.70;99.90;;;;;;5065899;28;20048;-65
2022/11/06 09:56:27;;;;;;;0.10;0.10;;;10.70;99.90;;;;;;5062593;28;20039;-64
2022/11/06 09:58:53;;;;;;;0.38;0.38;;;10.70;99.90;;;;;;5065064;28;20538;-64
2022/11/06 10:01:27;;;;;;;0.22;0.22;;;10.70;99.90;;;;;;5057780;28;20102;-64
2022/11/06 10:03:57;;;;;;;;;;;10.70;99.90;;;;;;5058337;28;20049;-64
2022/11/06 10:06:24;;;;;;;4.13;0.55;;;10.80;99.90;;;;;;5049340;28;19974;-64
2022/11/06 10:08:53;;;;;;;0.10;0.10;;;10.80;99.90;;;;;;5062998;28;20048;-64
2022/11/06 10:11:24;;;;;;;0.65;0.65;;;10.80;99.90;;;;;;5059267;28;20430;-65
2022/11/06 10:14:22;;;;;;;0.05;0.05;;;10.80;99.90;;;;;;5066819;28;20041;-65
2022/11/06 10:16:52;;;;;;;0.57;0.57;;;10.80;99.90;;;;;;5063465;28;20365;-65
2022/11/06 10:19:49;;;;;;;7.82;1.40;;;10.80;99.90;;;;;;5054827;28;20055;-65
2022/11/06 10:22:19;;;;;;;2.83;1.23;;;10.80;99.90;;;;;;5065303;28;20098;-64
2022/11/06 10:24:51;;;;;;;0.13;0.13;;;10.80;99.90;;;;;;5046628;28;20057;-65
2022/11/06 10:27:24;;;;;;;3.15;0.55;;;10.80;99.90;;;;;;5067995;28;20044;-65
2022/11/06 10:30:08;;;;;;;0.30;0.30;;;10.90;99.90;;;;;;5069319;28;20102;-65
2022/11/06 10:32:57;;;;;;;0.10;0.10;;;10.80;99.90;;;;;;5051534;28;20045;-65
2022/11/06 10:35:33;;;;;;;0.10;0.10;;;10.90;99.90;;;;;;5034072;28;20067;-65
2022/11/06 10:38:09;;;;;;;0.40;0.40;;;10.90;99.90;;;;;;5061486;28;20102;-65
2022/11/06 10:40:35;;;;;;;0.20;0.20;;;10.90;99.90;;;;;;5058078;28;20492;-65
2022/11/06 10:43:41;;;;;;;0.10;0.10;;;10.90;99.90;;;;;;5059035;28;20043;-65
2022/11/06 10:46:24;;;;;;;0.10;0.10;;;10.90;99.90;;;;;;5059497;28;20098;-65
2022/11/06 10:48:57;;;;;;;0.10;0.10;;;10.80;99.90;;;;;;5060188;28;20087;-65
2022/11/06 10:51:50;;;;;;;0.08;0.08;;;10.90;99.90;;;;;;5051049;28;20067;-65
2022/11/06 10:54:42;;;;;;;0.47;0.47;;;10.90;99.90;;;;;;5057549;28;20045;-65
2022/11/06 10:57:37;;;;;;;0.10;0.10;;;11.00;99.90;;;;;;5045224;28;20052;-65
2022/11/06 11:00:11;;;;;;;0.10;0.10;;;11.00;99.90;;;;;;5055084;28;20532;-65
2022/11/06 11:02:41;;;;;;;0.47;0.47;;;11.00;99.90;;;;;;5066735;28;20113;-64
2022/11/06 11:05:16;;;;;;;0.10;0.10;;;11.10;99.90;;;;;;5041464;28;20495;-65
2022/11/06 11:07:45;;;;;;;0.00;0.00;;;11.10;99.90;;;;;;5062360;28;20124;-65
2022/11/06 11:10:24;;;;;;;0.00;0.00;;;11.10;99.90;;;;;;5064648;28;20496;-65
2022/11/06 11:12:52;;;;;;;0.13;0.13;;;11.10;99.90;;;;;;5059993;28;20045;-65
2022/11/06 11:15:23;;;;;;;0.10;0.10;;;11.10;99.90;;;;;;5063908;28;20059;-65
2022/11/06 11:18:10;;;;;;;0.32;0.32;;;11.20;99.90;;;;;;5050915;28;20037;-65
2022/11/06 11:20:38;;;;;;;0.10;0.10;;;11.20;99.90;;;;;;5060487;28;20124;-66
2022/11/06 11:23:21;;;;;;;0.10;0.10;;;11.20;99.90;;;;;;5054548;28;20503;-66
2022/11/06 11:25:53;;;;;;;0.55;0.55;;;11.20;99.90;;;;;;5055117;28;20060;-66
2022/11/06 11:28:39;;;;;;;0.10;0.10;;;11.10;99.90;;;;;;5056065;28;20041;-66
2022/11/06 11:31:13;;;;;;;0.10;0.10;;;11.20;99.90;;;;;;5055773;28;20490;-65
2022/11/06 11:33:40;;;;;;;0.28;0.28;;;11.20;99.90;;;;;;5062618;28;20438;-65
2022/11/06 11:36:08;;;;;;;0.10;0.10;;;11.30;99.90;;;;;;5064862;28;20048;-65
2022/11/06 11:38:37;;;;;;;0.10;0.10;;;11.30;99.90;;;;;;5058387;28;20097;-65
2022/11/06 11:41:20;;;;;;;0.10;0.10;;;11.30;99.90;;;;;;5066869;28;20041;-65
2022/11/06 11:44:05;;;;;;;0.15;0.15;;;11.30;99.90;;;;;;5058156;28;20126;-65
2022/11/06 11:46:32;;;;;;;0.10;0.10;;;11.30;99.90;;;;;;5064420;28;20052;-65
2022/11/06 11:48:58;;;;;;;0.10;0.10;;;11.40;99.90;;;;;;5032885;28;20041;-64
2022/11/06 11:51:28;;;;;;;0.22;0.22;;;11.40;99.90;;;;;;5054088;28;20474;-66
2022/11/06 11:54:03;;;;;;;0.10;0.10;;;11.40;99.90;;;;;;5053304;28;20048;-65
2022/11/06 11:56:30;;;;;;;0.10;0.10;;;11.40;99.90;;;;;;5057384;28;20083;-66
2022/11/06 11:58:59;;;;;;;0.10;0.10;;;11.50;99.90;;;;;;5066909;28;20045;-65
2022/11/06 12:01:35;;;;;;;0.10;0.10;;;11.50;99.90;;;;;;5052071;28;20044;-65
2022/11/06 12:04:16;;;;;;;0.00;0.00;;;11.50;99.90;;;;;;5049650;28;20496;-65
2022/11/06 12:07:02;;;;;;;0.15;0.15;;;11.50;99.90;;;;;;5050662;28;20495;-65
2022/11/06 12:09:32;;;;;;;0.03;0.03;;;11.50;99.90;;;;;;5050453;28;20462;-65
2022/11/06 12:11:59;;;;;;;0.70;0.70;;;11.50;99.90;;;;;;5045803;28;20131;-65
2022/11/06 12:14:38;;;;;;;0.10;0.10;;;11.60;99.90;;;;;;5057976;28;20507;-65
2022/11/06 12:17:19;;;;;;;0.45;0.45;;;11.50;99.90;;;;;;5066836;28;20041;-65
2022/11/06 12:19:50;;;;;;;1.67;1.58;;;11.60;99.90;;;;;;5070531;28;20611;-65
2022/11/06 12:22:30;;;;;;;0.20;0.20;;;11.70;99.90;;;;;;5067039;28;20500;-65
2022/11/06 12:25:19;;;;;;;0.00;0.00;;;11.70;99.90;;;;;;5062120;28;20120;-65
2022/11/06 12:27:58;;;;;;;1.77;1.00;;;11.70;99.90;;;;;;5050060;28;20044;-66
2022/11/06 12:30:24;;;;;;;0.70;0.70;;;11.80;99.90;;;;;;5049072;28;20053;-66
2022/11/06 12:33:14;;;;;;;1.38;1.27;;;11.80;99.90;;;;;;5057673;28;20053;-65
2022/11/06 12:35:54;;;;;;;0.00;0.00;;;11.80;99.90;;;;;;5055378;28;20076;-66
2022/11/06 12:38:26;;;;;;;0.10;0.10;;;11.80;99.90;;;;;;5046785;28;20132;-65
2022/11/06 12:41:03;;;;;;;0.10;0.10;;;11.90;99.90;;;;;;5061055;28;20455;-65
2022/11/06 12:43:37;;;;;;;0.10;0.10;;;11.80;99.90;;;;;;5051692;28;20049;-65
2022/11/06 12:46:15;;;;;;;0.20;0.20;;;11.80;99.90;;;;;;5049594;28;20045;-65
2022/11/06 12:49:12;;;;;;;0.10;0.10;;;11.80;99.90;;;;;;5056407;28;20042;-65
2022/11/06 12:52:11;;;;;;;2.08;0.90;;;11.80;99.90;;;;;;5054549;28;20055;-65
2022/11/06 12:55:06;;;;;;;0.22;0.22;;;11.80;99.90;;;;;;5059744;28;20941;-65
2022/11/06 12:57:53;;;;;;;0.10;0.10;;;11.80;99.90;;;;;;5050547;28;20037;-66
2022/11/06 13:00:25;;;;;;;0.10;0.10;;;11.80;99.90;;;;;;5058518;28;20143;-65
2022/11/06 13:03:21;;;;;;;0.10;0.10;;;11.80;99.90;;;;;;5040342;28;20045;-65
2022/11/06 13:06:04;;;;;;;0.10;0.10;;;11.80;99.90;;;;;;5062685;28;20123;-65
2022/11/06 13:08:32;;;;;;;0.00;0.00;;;11.80;99.90;;;;;;5051115;28;20175;-65
2022/11/06 13:11:17;;;;;;;0.10;0.10;;;11.80;99.90;;;;;;5052198;28;20518;-65
2022/11/06 13:14:01;;;;;;;0.10;0.10;;;11.70;99.90;;;;;;5044050;28;20049;-65
2022/11/06 13:16:43;;;;;;;0.10;0.10;;;11.70;99.90;;;;;;5049847;28;20049;-65
2022/11/06 13:19:30;;;;;;;0.10;0.10;;;11.60;99.90;;;;;;5051024;28;20052;-65
2022/11/06 13:22:03;;;;;;;0.20;0.20;;;11.60;99.90;;;;;;5063466;28;20119;-65
2022/11/06 13:24:39;;;;;;;0.05;0.05;;;11.50;99.90;;;;;;5068438;28;20044;-65